sensor_id;sensor_type;location;lat;lon;timestamp;temperature;humidity
23087;DHT22;11712;51.134;4.156;2022-10-01T00:02:24;12.00;99.90
23087;DHT22;11712;51.134;4.156;2022-10-01T00:04:50;12.00;99.90
23087;DHT22;11712;51.134;4.156;2022-10-01T00:07:16;11.90;99.90
23087;DHT22;11712;51.134;4.156;2022-10-01T00:09:41;11.90;99.90
23087;DHT22;11712;51.134;4.156;2022-10-01T00:12:07;12.00;99.90
23087;DHT22;11712;51.134;4.156;2022-10-01T00:14:33;12.00;99.90
23087;DHT22;11712;51.134;4.156;2022-10-01T00:18:20;12.10;99.90
23087;DHT22;11712;51.134;4.156;2022-10-01T00:20:45;12.10;99.90
23087;DHT22;11712;51.134;4.156;2022-10-01T00:23:13;12.00;99.90
23087;DHT22;11712;51.134;4.156;2022-10-01T00:25:40;12.20;99.90
23087;DHT22;11712;51.134;4.156;2022-10-01T00:28:07;12.10;99.90
23087;DHT22;11712;51.134;4.156;2022-10-01T00:30:32;12.00;99.90
23087;DHT22;11712;51.134;4.156;2022-10-01T00:32:58;12.00;99.90
23087;DHT22;11712;51.134;4.156;2022-10-01T00:35:24;12.00;99.90
23087;DHT22;11712;51.134;4.156;2022-10-01T00:37:50;12.10;99.90
23087;DHT22;11712;51.134;4.156;2022-10-01T00:40:19;12.10;99.90
23087;DHT22;11712;51.134;4.156;2022-10-01T00:42:45;12.00;99.90
23087;DHT22;11712;51.134;4.156;2022-10-01T00:45:13;11.90;99.90
23087;DHT22;11712;51.134;4.156;2022-10-01T00:48:04;12.10;99.90
23087;DHT22;11712;51.134;4.156;2022-10-01T00:50:33;12.00;99.90
23087;DHT22;11712;51.134;4.156;2022-10-01T00:53:05;12.00;99.90
23087;DHT22;11712;51.134;4.156;2022-10-01T00:55:35;12.00;99.90
23087;DHT22;11712;51.134;4.156;2022-10-01T00:58:06;11.90;99.90
23087;DHT22;11712;51.134;4.156;2022-10-01T01:00:34;12.00;99.90
23087;DHT22;11712;51.134;4.156;2022-10-01T01:03:01;12.10;99.90
23087;DHT22;11712;51.134;4.156;2022-10-01T01:05:27;12.30;99.90
23087;DHT22;11712;51.134;4.156;2022-10-01T01:07:53;12.10;99.90
23087;DHT22;11712;51.134;4.156;2022-10-01T01:10:44;12.10;99.90
23087;DHT22;11712;51.134;4.156;2022-10-01T01:16:08;12.20;99.90
23087;DHT22;11712;51.134;4.156;2022-10-01T01:18:51;12.10;99.90
23087;DHT22;11712;51.134;4.156;2022-10-01T01:21:30;12.10;99.90
23087;DHT22;11712;51.134;4.156;2022-10-01T01:24:13;12.10;99.90
23087;DHT22;11712;51.134;4.156;2022-10-01T01:26:59;12.10;99.90
23087;DHT22;11712;51.134;4.156;2022-10-01T01:29:37;12.20;99.90
23087;DHT22;11712;51.134;4.156;2022-10-01T01:32:16;12.20;99.90
23087;DHT22;11712;51.134;4.156;2022-10-01T01:34:46;12.20;99.90
23087;DHT22;11712;51.134;4.156;2022-10-01T01:37:15;12.20;99.90
23087;DHT22;11712;51.134;4.156;2022-10-01T01:39:46;12.20;99.90
23087;DHT22;11712;51.134;4.156;2022-10-01T01:42:20;12.20;99.90
23087;DHT22;11712;51.134;4.156;2022-10-01T01:46:13;12.20;99.90
23087;DHT22;11712;51.134;4.156;2022-10-01T01:48:42;12.30;99.90
23087;DHT22;11712;51.134;4.156;2022-10-01T01:51:39;12.30;99.90
23087;DHT22;11712;51.134;4.156;2022-10-01T01:54:06;12.40;99.90
23087;DHT22;11712;51.134;4.156;2022-10-01T01:56:32;12.50;99.90
23087;DHT22;11712;51.134;4.156;2022-10-01T01:58:59;12.40;99.90
23087;DHT22;11712;51.134;4.156;2022-10-01T02:01:42;12.50;99.90
23087;DHT22;11712;51.134;4.156;2022-10-01T02:04:47;12.50;99.90
23087;DHT22;11712;51.134;4.156;2022-10-01T02:15:27;12.60;99.90
23087;DHT22;11712;51.134;4.156;2022-10-01T02:26:40;12.80;99.90
23087;DHT22;11712;51.134;4.156;2022-10-01T02:29:08;12.90;99.90
23087;DHT22;11712;51.134;4.156;2022-10-01T02:31:35;12.90;99.90
23087;DHT22;11712;51.134;4.156;2022-10-01T02:34:02;12.90;99.90
23087;DHT22;11712;51.134;4.156;2022-10-01T02:36:32;12.80;99.90
23087;DHT22;11712;51.134;4.156;2022-10-01T02:38:59;12.80;99.90
23087;DHT22;11712;51.134;4.156;2022-10-01T02:41:35;12.80;99.90
23087;DHT22;11712;51.134;4.156;2022-10-01T02:44:06;12.90;99.90
23087;DHT22;11712;51.134;4.156;2022-10-01T02:49:03;12.90;99.90
23087;DHT22;11712;51.134;4.156;2022-10-01T02:54:26;13.30;99.90
23087;DHT22;11712;51.134;4.156;2022-10-01T02:56:54;13.00;99.90
23087;DHT22;11712;51.134;4.156;2022-10-01T02:59:38;13.00;99.90
23087;DHT22;11712;51.134;4.156;2022-10-01T03:02:04;13.10;99.90
23087;DHT22;11712;51.134;4.156;2022-10-01T03:04:29;13.00;99.90
23087;DHT22;11712;51.134;4.156;2022-10-01T03:06:55;13.00;99.90
23087;DHT22;11712;51.134;4.156;2022-10-01T03:09:23;13.00;99.90
23087;DHT22;11712;51.134;4.156;2022-10-01T03:11:48;13.10;99.90
23087;DHT22;11712;51.134;4.156;2022-10-01T03:14:14;13.10;99.90
23087;DHT22;11712;51.134;4.156;2022-10-01T03:16:39;13.10;99.90
23087;DHT22;11712;51.134;4.156;2022-10-01T03:19:05;13.20;99.90
23087;DHT22;11712;51.134;4.156;2022-10-01T03:21:31;13.10;99.90
23087;DHT22;11712;51.134;4.156;2022-10-01T03:23:56;13.20;99.90
23087;DHT22;11712;51.134;4.156;2022-10-01T03:26:22;13.20;99.90
23087;DHT22;11712;51.134;4.156;2022-10-01T03:28:48;13.20;99.90
23087;DHT22;11712;51.134;4.156;2022-10-01T03:31:13;13.30;99.90
23087;DHT22;11712;51.134;4.156;2022-10-01T03:35:08;13.30;99.90
23087;DHT22;11712;51.134;4.156;2022-10-01T03:37:33;13.30;99.90
23087;DHT22;11712;51.134;4.156;2022-10-01T03:39:59;13.40;99.90
23087;DHT22;11712;51.134;4.156;2022-10-01T03:42:25;13.40;99.90
23087;DHT22;11712;51.134;4.156;2022-10-01T03:44:50;13.60;99.90
23087;DHT22;11712;51.134;4.156;2022-10-01T03:47:17;13.60;99.90
23087;DHT22;11712;51.134;4.156;2022-10-01T03:49:42;13.70;99.90
23087;DHT22;11712;51.134;4.156;2022-10-01T03:52:08;13.70;99.90
23087;DHT22;11712;51.134;4.156;2022-10-01T03:54:34;13.80;99.90
23087;DHT22;11712;51.134;4.156;2022-10-01T03:56:59;13.70;99.90
23087;DHT22;11712;51.134;4.156;2022-10-01T03:59:25;13.80;99.90
23087;DHT22;11712;51.134;4.156;2022-10-01T04:01:54;13.90;99.90
23087;DHT22;11712;51.134;4.156;2022-10-01T04:04:19;13.90;99.90
23087;DHT22;11712;51.134;4.156;2022-10-01T04:06:45;14.00;99.90
23087;DHT22;11712;51.134;4.156;2022-10-01T04:09:11;14.10;99.90
23087;DHT22;11712;51.134;4.156;2022-10-01T04:11:36;14.10;99.90
23087;DHT22;11712;51.134;4.156;2022-10-01T04:14:03;14.00;99.90
23087;DHT22;11712;51.134;4.156;2022-10-01T04:16:30;14.00;99.90
23087;DHT22;11712;51.134;4.156;2022-10-01T04:18:56;14.00;99.90
23087;DHT22;11712;51.134;4.156;2022-10-01T04:21:22;14.10;99.90
23087;DHT22;11712;51.134;4.156;2022-10-01T04:23:47;14.10;99.90
23087;DHT22;11712;51.134;4.156;2022-10-01T04:26:14;14.10;99.90
23087;DHT22;11712;51.134;4.156;2022-10-01T04:28:43;14.10;99.90
23087;DHT22;11712;51.134;4.156;2022-10-01T04:31:11;14.20;99.90
23087;DHT22;11712;51.134;4.156;2022-10-01T04:33:54;14.20;99.90
23087;DHT22;11712;51.134;4.156;2022-10-01T04:36:20;14.30;99.90
23087;DHT22;11712;51.134;4.156;2022-10-01T04:38:49;14.30;99.90
23087;DHT22;11712;51.134;4.156;2022-10-01T04:41:14;14.40;99.90
23087;DHT22;11712;51.134;4.156;2022-10-01T04:43:40;14.50;99.90
23087;DHT22;11712;51.134;4.156;2022-10-01T04:46:05;14.40;99.90
23087;DHT22;11712;51.134;4.156;2022-10-01T04:48:31;14.40;99.90
23087;DHT22;11712;51.134;4.156;2022-10-01T04:50:57;14.40;99.90
23087;DHT22;11712;51.134;4.156;2022-10-01T04:53:22;14.40;99.90
23087;DHT22;11712;51.134;4.156;2022-10-01T04:55:48;14.30;99.90
23087;DHT22;11712;51.134;4.156;2022-10-01T04:58:14;14.50;99.90
23087;DHT22;11712;51.134;4.156;2022-10-01T05:00:39;14.40;99.90
23087;DHT22;11712;51.134;4.156;2022-10-01T05:03:05;14.30;99.90
23087;DHT22;11712;51.134;4.156;2022-10-01T05:05:31;14.30;99.90
23087;DHT22;11712;51.134;4.156;2022-10-01T05:07:59;14.30;99.90
23087;DHT22;11712;51.134;4.156;2022-10-01T05:10:25;14.30;99.90
23087;DHT22;11712;51.134;4.156;2022-10-01T05:12:52;14.30;99.90
23087;DHT22;11712;51.134;4.156;2022-10-01T05:15:18;14.30;99.90
23087;DHT22;11712;51.134;4.156;2022-10-01T05:17:43;14.40;99.90
23087;DHT22;11712;51.134;4.156;2022-10-01T05:20:18;14.40;99.90
23087;DHT22;11712;51.134;4.156;2022-10-01T05:22:45;14.40;99.90
23087;DHT22;11712;51.134;4.156;2022-10-01T05:25:12;14.40;99.90
23087;DHT22;11712;51.134;4.156;2022-10-01T05:27:37;14.40;99.90
23087;DHT22;11712;51.134;4.156;2022-10-01T05:30:06;14.50;99.90
23087;DHT22;11712;51.134;4.156;2022-10-01T05:32:33;14.50;99.90
23087;DHT22;11712;51.134;4.156;2022-10-01T05:34:59;14.60;99.90
23087;DHT22;11712;51.134;4.156;2022-10-01T05:37:24;14.50;99.90
23087;DHT22;11712;51.134;4.156;2022-10-01T05:39:50;14.50;99.90
23087;DHT22;11712;51.134;4.156;2022-10-01T05:42:16;14.60;99.90
23087;DHT22;11712;51.134;4.156;2022-10-01T05:44:41;14.50;99.90
23087;DHT22;11712;51.134;4.156;2022-10-01T05:47:12;14.50;99.90
23087;DHT22;11712;51.134;4.156;2022-10-01T05:49:41;14.70;99.90
23087;DHT22;11712;51.134;4.156;2022-10-01T05:52:13;14.50;99.90
23087;DHT22;11712;51.134;4.156;2022-10-01T05:54:38;14.40;99.90
23087;DHT22;11712;51.134;4.156;2022-10-01T05:57:05;14.50;99.90
23087;DHT22;11712;51.134;4.156;2022-10-01T05:59:33;14.60;99.90
23087;DHT22;11712;51.134;4.156;2022-10-01T06:01:59;14.60;99.90
23087;DHT22;11712;51.134;4.156;2022-10-01T06:04:24;14.70;99.90
23087;DHT22;11712;51.134;4.156;2022-10-01T06:06:52;14.70;99.90
23087;DHT22;11712;51.134;4.156;2022-10-01T06:09:18;14.70;99.90
23087;DHT22;11712;51.134;4.156;2022-10-01T06:11:43;14.80;99.90
23087;DHT22;11712;51.134;4.156;2022-10-01T06:14:11;14.80;99.90
23087;DHT22;11712;51.134;4.156;2022-10-01T06:16:36;14.90;99.90
23087;DHT22;11712;51.134;4.156;2022-10-01T06:19:02;14.80;99.90
23087;DHT22;11712;51.134;4.156;2022-10-01T06:21:28;14.70;99.90
23087;DHT22;11712;51.134;4.156;2022-10-01T06:23:54;14.70;99.90
23087;DHT22;11712;51.134;4.156;2022-10-01T06:26:20;14.80;99.90
23087;DHT22;11712;51.134;4.156;2022-10-01T06:28:49;14.90;99.90
23087;DHT22;11712;51.134;4.156;2022-10-01T06:31:15;15.00;99.90
23087;DHT22;11712;51.134;4.156;2022-10-01T06:33:41;14.90;99.90
23087;DHT22;11712;51.134;4.156;2022-10-01T06:36:07;14.90;99.90
23087;DHT22;11712;51.134;4.156;2022-10-01T06:38:32;15.00;99.90
23087;DHT22;11712;51.134;4.156;2022-10-01T06:40:59;15.10;99.90
23087;DHT22;11712;51.134;4.156;2022-10-01T06:43:27;15.20;99.90
23087;DHT22;11712;51.134;4.156;2022-10-01T06:45:54;15.00;99.90
23087;DHT22;11712;51.134;4.156;2022-10-01T06:48:20;14.90;99.90
23087;DHT22;11712;51.134;4.156;2022-10-01T06:50:48;14.90;99.90
23087;DHT22;11712;51.134;4.156;2022-10-01T06:53:15;15.00;99.90
23087;DHT22;11712;51.134;4.156;2022-10-01T06:55:42;15.00;99.90
23087;DHT22;11712;51.134;4.156;2022-10-01T06:58:15;15.00;99.90
23087;DHT22;11712;51.134;4.156;2022-10-01T07:00:41;15.00;99.90
23087;DHT22;11712;51.134;4.156;2022-10-01T07:03:12;15.10;99.90
23087;DHT22;11712;51.134;4.156;2022-10-01T07:05:38;15.10;99.90
23087;DHT22;11712;51.134;4.156;2022-10-01T07:08:05;15.10;99.90
23087;DHT22;11712;51.134;4.156;2022-10-01T07:10:31;15.20;99.90
23087;DHT22;11712;51.134;4.156;2022-10-01T07:13:08;15.30;99.90
23087;DHT22;11712;51.134;4.156;2022-10-01T07:15:35;15.30;99.90
23087;DHT22;11712;51.134;4.156;2022-10-01T07:18:00;15.30;99.90
23087;DHT22;11712;51.134;4.156;2022-10-01T07:20:26;15.30;99.90
23087;DHT22;11712;51.134;4.156;2022-10-01T07:22:57;15.40;99.90
23087;DHT22;11712;51.134;4.156;2022-10-01T07:25:23;15.40;99.90
23087;DHT22;11712;51.134;4.156;2022-10-01T07:27:56;15.50;99.90
23087;DHT22;11712;51.134;4.156;2022-10-01T07:30:22;15.60;99.90
23087;DHT22;11712;51.134;4.156;2022-10-01T07:32:48;15.60;99.90
23087;DHT22;11712;51.134;4.156;2022-10-01T07:35:14;15.70;99.90
23087;DHT22;11712;51.134;4.156;2022-10-01T07:37:40;15.80;99.90
23087;DHT22;11712;51.134;4.156;2022-10-01T07:40:06;15.90;99.90
23087;DHT22;11712;51.134;4.156;2022-10-01T07:44:18;16.00;99.90
23087;DHT22;11712;51.134;4.156;2022-10-01T07:46:44;16.00;99.90
23087;DHT22;11712;51.134;4.156;2022-10-01T07:49:11;16.00;99.90
23087;DHT22;11712;51.134;4.156;2022-10-01T07:51:36;16.10;99.90
23087;DHT22;11712;51.134;4.156;2022-10-01T07:54:03;16.30;99.90
23087;DHT22;11712;51.134;4.156;2022-10-01T07:56:28;16.30;99.90
23087;DHT22;11712;51.134;4.156;2022-10-01T07:58:55;16.30;99.90
23087;DHT22;11712;51.134;4.156;2022-10-01T08:01:21;16.30;99.90
23087;DHT22;11712;51.134;4.156;2022-10-01T08:03:52;16.20;99.90
23087;DHT22;11712;51.134;4.156;2022-10-01T08:06:19;16.30;99.90
23087;DHT22;11712;51.134;4.156;2022-10-01T08:08:45;16.40;99.90
23087;DHT22;11712;51.134;4.156;2022-10-01T08:11:12;16.50;99.90
23087;DHT22;11712;51.134;4.156;2022-10-01T08:13:40;16.50;99.90
23087;DHT22;11712;51.134;4.156;2022-10-01T08:16:06;16.50;99.90
23087;DHT22;11712;51.134;4.156;2022-10-01T08:19:02;16.70;99.90
23087;DHT22;11712;51.134;4.156;2022-10-01T08:21:28;16.60;99.90
23087;DHT22;11712;51.134;4.156;2022-10-01T08:23:54;16.70;99.90
23087;DHT22;11712;51.134;4.156;2022-10-01T08:26:19;16.70;99.90
23087;DHT22;11712;51.134;4.156;2022-10-01T08:28:45;16.70;99.90
23087;DHT22;11712;51.134;4.156;2022-10-01T08:31:10;16.70;99.90
23087;DHT22;11712;51.134;4.156;2022-10-01T08:33:37;16.80;99.90
23087;DHT22;11712;51.134;4.156;2022-10-01T08:36:04;16.90;99.90
23087;DHT22;11712;51.134;4.156;2022-10-01T08:38:34;17.00;99.90
23087;DHT22;11712;51.134;4.156;2022-10-01T08:41:06;17.00;99.90
23087;DHT22;11712;51.134;4.156;2022-10-01T08:43:34;16.90;99.90
23087;DHT22;11712;51.134;4.156;2022-10-01T08:46:09;17.10;99.90
23087;DHT22;11712;51.134;4.156;2022-10-01T08:51:45;16.90;99.90
23087;DHT22;11712;51.134;4.156;2022-10-01T08:54:27;16.90;99.90
23087;DHT22;11712;51.134;4.156;2022-10-01T08:56:57;16.90;99.90
23087;DHT22;11712;51.134;4.156;2022-10-01T08:59:41;16.90;99.90
23087;DHT22;11712;51.134;4.156;2022-10-01T09:02:27;17.00;99.90
23087;DHT22;11712;51.134;4.156;2022-10-01T09:04:58;17.10;99.90
23087;DHT22;11712;51.134;4.156;2022-10-01T09:07:58;17.10;99.90
23087;DHT22;11712;51.134;4.156;2022-10-01T09:13:03;17.10;99.90
23087;DHT22;11712;51.134;4.156;2022-10-01T09:15:43;17.30;99.90
23087;DHT22;11712;51.134;4.156;2022-10-01T09:18:24;17.50;99.90
23087;DHT22;11712;51.134;4.156;2022-10-01T09:20:57;17.60;99.90
23087;DHT22;11712;51.134;4.156;2022-10-01T09:23:37;17.80;99.90
23087;DHT22;11712;51.134;4.156;2022-10-01T09:26:09;18.00;99.90
23087;DHT22;11712;51.134;4.156;2022-10-01T09:28:37;18.20;99.90
23087;DHT22;11712;51.134;4.156;2022-10-01T09:33:40;18.00;99.90
23087;DHT22;11712;51.134;4.156;2022-10-01T09:36:55;18.10;99.90
23087;DHT22;11712;51.134;4.156;2022-10-01T09:39:01;18.30;99.90
23087;DHT22;11712;51.134;4.156;2022-10-01T09:41:28;18.20;99.90
23087;DHT22;11712;51.134;4.156;2022-10-01T09:43:55;18.30;99.90
23087;DHT22;11712;51.134;4.156;2022-10-01T09:46:22;18.30;99.90
23087;DHT22;11712;51.134;4.156;2022-10-01T09:49:02;18.10;99.90
23087;DHT22;11712;51.134;4.156;2022-10-01T09:51:52;18.20;99.90
23087;DHT22;11712;51.134;4.156;2022-10-01T09:57:08;18.30;99.90
23087;DHT22;11712;51.134;4.156;2022-10-01T10:02:23;18.40;99.90
23087;DHT22;11712;51.134;4.156;2022-10-01T10:05:06;18.50;99.90
23087;DHT22;11712;51.134;4.156;2022-10-01T10:07:32;18.50;99.90
23087;DHT22;11712;51.134;4.156;2022-10-01T10:10:19;18.60;99.90
23087;DHT22;11712;51.134;4.156;2022-10-01T10:12:47;18.60;99.90
23087;DHT22;11712;51.134;4.156;2022-10-01T10:15:21;18.70;99.90
23087;DHT22;11712;51.134;4.156;2022-10-01T10:17:49;18.70;99.90
23087;DHT22;11712;51.134;4.156;2022-10-01T10:20:40;18.60;99.90
23087;DHT22;11712;51.134;4.156;2022-10-01T10:23:20;18.40;99.90
23087;DHT22;11712;51.134;4.156;2022-10-01T10:25:57;18.30;99.90
23087;DHT22;11712;51.134;4.156;2022-10-01T10:28:25;18.30;99.90
23087;DHT22;11712;51.134;4.156;2022-10-01T10:30:53;18.30;99.90
23087;DHT22;11712;51.134;4.156;2022-10-01T10:33:21;18.30;99.90
23087;DHT22;11712;51.134;4.156;2022-10-01T10:35:59;18.40;99.90
23087;DHT22;11712;51.134;4.156;2022-10-01T10:38:30;18.50;99.90
23087;DHT22;11712;51.134;4.156;2022-10-01T10:40:56;18.70;99.90
23087;DHT22;11712;51.134;4.156;2022-10-01T10:43:25;18.50;99.90
23087;DHT22;11712;51.134;4.156;2022-10-01T10:45:52;18.70;99.90
23087;DHT22;11712;51.134;4.156;2022-10-01T10:48:24;18.80;99.90
23087;DHT22;11712;51.134;4.156;2022-10-01T10:50:58;18.80;99.90
23087;DHT22;11712;51.134;4.156;2022-10-01T10:53:26;18.80;99.90
23087;DHT22;11712;51.134;4.156;2022-10-01T10:55:58;19.00;99.90
23087;DHT22;11712;51.134;4.156;2022-10-01T10:58:30;19.00;99.90
23087;DHT22;11712;51.134;4.156;2022-10-01T11:00:59;18.90;99.90
23087;DHT22;11712;51.134;4.156;2022-10-01T11:03:28;18.70;99.90
23087;DHT22;11712;51.134;4.156;2022-10-01T11:06:02;18.70;99.90
23087;DHT22;11712;51.134;4.156;2022-10-01T11:08:29;19.00;99.90
23087;DHT22;11712;51.134;4.156;2022-10-01T11:11:06;19.30;99.90
23087;DHT22;11712;51.134;4.156;2022-10-01T11:19:31;19.30;99.90
23087;DHT22;11712;51.134;4.156;2022-10-01T11:22:25;19.20;99.90
23087;DHT22;11712;51.134;4.156;2022-10-01T11:30:23;18.40;99.90
23087;DHT22;11712;51.134;4.156;2022-10-01T11:35:59;18.50;99.90
23087;DHT22;11712;51.134;4.156;2022-10-01T11:40:22;18.50;99.90
23087;DHT22;11712;51.134;4.156;2022-10-01T11:42:51;18.20;99.90
23087;DHT22;11712;51.134;4.156;2022-10-01T11:45:33;18.30;99.90
23087;DHT22;11712;51.134;4.156;2022-10-01T11:48:07;18.40;99.90
23087;DHT22;11712;51.134;4.156;2022-10-01T11:50:40;18.80;99.90
23087;DHT22;11712;51.134;4.156;2022-10-01T11:53:21;18.80;99.90
23087;DHT22;11712;51.134;4.156;2022-10-01T11:55:55;18.90;99.90
23087;DHT22;11712;51.134;4.156;2022-10-01T11:58:55;18.70;99.90
23087;DHT22;11712;51.134;4.156;2022-10-01T12:09:26;18.20;99.90
23087;DHT22;11712;51.134;4.156;2022-10-01T12:12:05;18.10;99.90
23087;DHT22;11712;51.134;4.156;2022-10-01T12:14:41;17.90;99.90
23087;DHT22;11712;51.134;4.156;2022-10-01T12:17:27;18.00;99.90
23087;DHT22;11712;51.134;4.156;2022-10-01T12:19:57;18.20;99.90
23087;DHT22;11712;51.134;4.156;2022-10-01T12:22:30;18.50;99.90
23087;DHT22;11712;51.134;4.156;2022-10-01T12:24:57;18.70;99.90
23087;DHT22;11712;51.134;4.156;2022-10-01T12:27:57;18.80;99.90
23087;DHT22;11712;51.134;4.156;2022-10-01T12:30:36;18.90;99.90
23087;DHT22;11712;51.134;4.156;2022-10-01T12:38:53;18.60;99.90
23087;DHT22;11712;51.134;4.156;2022-10-01T12:49:35;19.00;99.90
23087;DHT22;11712;51.134;4.156;2022-10-01T13:00:21;19.50;99.90
23087;DHT22;11712;51.134;4.156;2022-10-01T13:08:42;19.90;99.90
23087;DHT22;11712;51.134;4.156;2022-10-01T13:13:50;19.90;99.90
23087;DHT22;11712;51.134;4.156;2022-10-01T13:21:56;19.60;99.90
23087;DHT22;11712;51.134;4.156;2022-10-01T13:27:09;19.60;99.90
23087;DHT22;11712;51.134;4.156;2022-10-01T13:32:54;19.40;99.90
23087;DHT22;11712;51.134;4.156;2022-10-01T13:35:51;19.50;99.90
23087;DHT22;11712;51.134;4.156;2022-10-01T13:41:02;19.70;99.90
23087;DHT22;11712;51.134;4.156;2022-10-01T13:43:30;19.70;99.90
23087;DHT22;11712;51.134;4.156;2022-10-01T13:46:08;19.40;99.90
23087;DHT22;11712;51.134;4.156;2022-10-01T13:48:35;19.30;99.90
23087;DHT22;11712;51.134;4.156;2022-10-01T13:51:08;19.30;99.90
23087;DHT22;11712;51.134;4.156;2022-10-01T13:53:46;19.20;99.90
23087;DHT22;11712;51.134;4.156;2022-10-01T13:56:28;19.50;99.90
23087;DHT22;11712;51.134;4.156;2022-10-01T13:58:55;19.40;99.90
23087;DHT22;11712;51.134;4.156;2022-10-01T14:06:50;19.50;99.90
23087;DHT22;11712;51.134;4.156;2022-10-01T14:09:28;19.50;99.90
23087;DHT22;11712;51.134;4.156;2022-10-01T14:14:54;19.70;99.90
23087;DHT22;11712;51.134;4.156;2022-10-01T14:17:38;19.90;99.90
23087;DHT22;11712;51.134;4.156;2022-10-01T14:20:04;19.80;99.90
23087;DHT22;11712;51.134;4.156;2022-10-01T14:36:03;19.20;99.90
23087;DHT22;11712;51.134;4.156;2022-10-01T14:38:31;19.20;99.90
23087;DHT22;11712;51.134;4.156;2022-10-01T14:40:57;19.00;99.90
23087;DHT22;11712;51.134;4.156;2022-10-01T14:43:25;19.10;99.90
23087;DHT22;11712;51.134;4.156;2022-10-01T14:46:20;19.10;99.90
23087;DHT22;11712;51.134;4.156;2022-10-01T14:48:55;19.20;99.90
23087;DHT22;11712;51.134;4.156;2022-10-01T14:51:25;19.30;99.90
23087;DHT22;11712;51.134;4.156;2022-10-01T14:53:53;19.40;99.90
23087;DHT22;11712;51.134;4.156;2022-10-01T14:56:19;19.50;99.90
23087;DHT22;11712;51.134;4.156;2022-10-01T14:58:51;20.00;99.90
23087;DHT22;11712;51.134;4.156;2022-10-01T15:01:22;20.90;99.90
23087;DHT22;11712;51.134;4.156;2022-10-01T15:03:49;21.90;99.90
23087;DHT22;11712;51.134;4.156;2022-10-01T15:06:20;22.00;99.90
23087;DHT22;11712;51.134;4.156;2022-10-01T15:08:51;21.90;99.90
23087;DHT22;11712;51.134;4.156;2022-10-01T15:11:24;21.20;99.90
23087;DHT22;11712;51.134;4.156;2022-10-01T15:13:54;20.60;99.90
23087;DHT22;11712;51.134;4.156;2022-10-01T15:16:23;20.10;99.90
23087;DHT22;11712;51.134;4.156;2022-10-01T15:18:50;19.80;99.90
23087;DHT22;11712;51.134;4.156;2022-10-01T15:21:48;19.50;99.90
23087;DHT22;11712;51.134;4.156;2022-10-01T15:26:48;18.90;99.90
23087;DHT22;11712;51.134;4.156;2022-10-01T15:29:16;18.80;99.90
23087;DHT22;11712;51.134;4.156;2022-10-01T15:32:16;18.50;99.90
23087;DHT22;11712;51.134;4.156;2022-10-01T15:34:50;18.50;99.90
23087;DHT22;11712;51.134;4.156;2022-10-01T15:37:34;18.50;99.90
23087;DHT22;11712;51.134;4.156;2022-10-01T15:40:03;18.60;99.90
23087;DHT22;11712;51.134;4.156;2022-10-01T15:42:31;18.40;99.90
23087;DHT22;11712;51.134;4.156;2022-10-01T15:47:39;18.40;99.90
23087;DHT22;11712;51.134;4.156;2022-10-01T15:55:38;18.30;99.90
23087;DHT22;11712;51.134;4.156;2022-10-01T16:01:12;18.20;99.90
23087;DHT22;11712;51.134;4.156;2022-10-01T16:03:47;18.10;99.90
23087;DHT22;11712;51.134;4.156;2022-10-01T16:06:19;18.30;99.90
23087;DHT22;11712;51.134;4.156;2022-10-01T16:11:21;18.00;99.90
23087;DHT22;11712;51.134;4.156;2022-10-01T16:14:43;18.00;99.90
23087;DHT22;11712;51.134;4.156;2022-10-01T16:19:48;17.90;99.90
23087;DHT22;11712;51.134;4.156;2022-10-01T16:32:30;17.80;99.90
23087;DHT22;11712;51.134;4.156;2022-10-01T16:37:40;17.70;99.90
23087;DHT22;11712;51.134;4.156;2022-10-01T16:40:06;17.70;99.90
23087;DHT22;11712;51.134;4.156;2022-10-01T16:42:33;17.60;99.90
23087;DHT22;11712;51.134;4.156;2022-10-01T16:45:03;17.50;99.90
23087;DHT22;11712;51.134;4.156;2022-10-01T16:47:29;17.30;99.90
23087;DHT22;11712;51.134;4.156;2022-10-01T16:49:54;17.40;99.90
23087;DHT22;11712;51.134;4.156;2022-10-01T16:52:20;17.30;99.90
23087;DHT22;11712;51.134;4.156;2022-10-01T16:54:46;17.30;99.90
23087;DHT22;11712;51.134;4.156;2022-10-01T16:57:13;17.30;99.90
23087;DHT22;11712;51.134;4.156;2022-10-01T16:59:40;17.40;99.90
23087;DHT22;11712;51.134;4.156;2022-10-01T17:02:10;17.20;99.90
23087;DHT22;11712;51.134;4.156;2022-10-01T17:04:35;17.10;99.90
23087;DHT22;11712;51.134;4.156;2022-10-01T17:07:02;17.10;99.90
23087;DHT22;11712;51.134;4.156;2022-10-01T17:09:27;17.10;99.90
23087;DHT22;11712;51.134;4.156;2022-10-01T17:11:53;17.10;99.90
23087;DHT22;11712;51.134;4.156;2022-10-01T17:14:20;17.00;99.90
23087;DHT22;11712;51.134;4.156;2022-10-01T17:16:46;17.10;99.90
23087;DHT22;11712;51.134;4.156;2022-10-01T17:19:13;17.00;99.90
23087;DHT22;11712;51.134;4.156;2022-10-01T17:21:39;16.90;99.90
23087;DHT22;11712;51.134;4.156;2022-10-01T17:24:06;16.90;99.90
23087;DHT22;11712;51.134;4.156;2022-10-01T17:26:38;16.80;99.90
23087;DHT22;11712;51.134;4.156;2022-10-01T17:29:06;16.50;99.90
23087;DHT22;11712;51.134;4.156;2022-10-01T17:31:37;16.20;99.90
23087;DHT22;11712;51.134;4.156;2022-10-01T17:34:05;16.10;99.90
23087;DHT22;11712;51.134;4.156;2022-10-01T17:36:32;15.90;99.90
23087;DHT22;11712;51.134;4.156;2022-10-01T17:38:59;15.80;99.90
23087;DHT22;11712;51.134;4.156;2022-10-01T17:41:25;15.80;99.90
23087;DHT22;11712;51.134;4.156;2022-10-01T17:43:51;15.70;99.90
23087;DHT22;11712;51.134;4.156;2022-10-01T17:46:17;15.60;99.90
23087;DHT22;11712;51.134;4.156;2022-10-01T17:48:42;15.50;99.90
23087;DHT22;11712;51.134;4.156;2022-10-01T17:51:09;15.30;99.90
23087;DHT22;11712;51.134;4.156;2022-10-01T17:53:37;15.30;99.90
23087;DHT22;11712;51.134;4.156;2022-10-01T17:56:08;15.30;99.90
23087;DHT22;11712;51.134;4.156;2022-10-01T17:58:34;15.20;99.90
23087;DHT22;11712;51.134;4.156;2022-10-01T18:01:06;15.10;99.90
23087;DHT22;11712;51.134;4.156;2022-10-01T18:03:32;15.10;99.90
23087;DHT22;11712;51.134;4.156;2022-10-01T18:06:01;15.10;99.90
23087;DHT22;11712;51.134;4.156;2022-10-01T18:08:28;15.10;99.90
23087;DHT22;11712;51.134;4.156;2022-10-01T18:11:08;15.00;99.90
23087;DHT22;11712;51.134;4.156;2022-10-01T18:13:35;15.00;99.90
23087;DHT22;11712;51.134;4.156;2022-10-01T18:16:03;15.00;99.90
23087;DHT22;11712;51.134;4.156;2022-10-01T18:18:30;14.90;99.90
23087;DHT22;11712;51.134;4.156;2022-10-01T18:21:08;14.90;99.90
23087;DHT22;11712;51.134;4.156;2022-10-01T18:23:35;15.00;99.90
23087;DHT22;11712;51.134;4.156;2022-10-01T18:26:04;15.00;99.90
23087;DHT22;11712;51.134;4.156;2022-10-01T18:28:29;14.90;99.90
23087;DHT22;11712;51.134;4.156;2022-10-01T18:33:52;14.90;99.90
23087;DHT22;11712;51.134;4.156;2022-10-01T18:39:13;14.80;99.90
23087;DHT22;11712;51.134;4.156;2022-10-01T18:41:40;14.80;99.90
23087;DHT22;11712;51.134;4.156;2022-10-01T18:44:11;14.70;99.90